Terminal Aerodrome Forecast
Issued by NWS Sioux Falls, SD

Home | Current Version | Previous Version | Text Only | Print | Product List | Glossary Off
Versions: 1 2 3 4 5 6 7 8 9 10

904
FTUS43 KFSD 211740
TAFFSD
TAF
KFSD 211740Z 2118/2218 07007KT P6SM SCT045 BKN200
     FM220100 04004KT P6SM BKN200
     FM220800 VRB02KT P6SM FEW250
     FM221500 01005KT P6SM SKC=

USA.gov is the U.S. government's official web portal to all federal, state and local government web resources and services.